createdAt,value
2023-05-09T00:02:09.357Z,102039.41
2023-05-09T00:05:10.911Z,102038.09
2023-05-09T00:08:13.152Z,102033.78
2023-05-09T00:11:15.099Z,102035.84
2023-05-09T00:14:17.667Z,102041.88
2023-05-09T00:17:18.968Z,102046.44
2023-05-09T00:20:21.116Z,102038.38
2023-05-09T00:23:22.435Z,102034.53
2023-05-09T00:26:24.468Z,102040.09
2023-05-09T00:29:25.750Z,102038.97
2023-05-09T00:32:28.490Z,102037.75
2023-05-09T00:35:31.522Z,102040.34
2023-05-09T00:38:33.026Z,102037.50
2023-05-09T00:41:35.111Z,102042.00
2023-05-09T00:44:36.539Z,102040.88
2023-05-09T00:47:38.315Z,102035.75
2023-05-09T00:50:40.086Z,102032.84
2023-05-09T00:53:41.541Z,102030.31
2023-05-09T00:56:43.957Z,102024.16
2023-05-09T00:59:45.393Z,102009.66
2023-05-09T01:02:50.558Z,102021.94
2023-05-09T01:05:57.564Z,102017.06
2023-05-09T01:09:06.712Z,102018.97
2023-05-09T01:12:16.383Z,102004.41
2023-05-09T01:15:24.468Z,102008.66
2023-05-09T01:18:31.433Z,102011.19
2023-05-09T01:21:34.884Z,102018.97
2023-05-09T01:25:09.766Z,102012.19
2023-05-09T01:28:16.468Z,102003.50
2023-05-09T01:31:20.034Z,102007.22
2023-05-09T01:34:24.991Z,102001.03
2023-05-09T01:37:31.022Z,101998.69
2023-05-09T01:40:34.209Z,101995.72
2023-05-09T01:43:37.936Z,102000.75
2023-05-09T01:46:44.164Z,102000.34
2023-05-09T01:49:47.571Z,102006.53
2023-05-09T01:52:53.176Z,101996.69
2023-05-09T01:55:56.579Z,102008.56
2023-05-09T01:59:00.851Z,102006.53
2023-05-09T02:02:04.346Z,102002.56
2023-05-09T02:05:08.848Z,101992.09
2023-05-09T02:08:11.579Z,102000.28
2023-05-09T02:11:13.426Z,102005.00
2023-05-09T02:14:15.762Z,101997.41
2023-05-09T02:17:18.508Z,101997.91
2023-05-09T02:20:20.575Z,101997.38
2023-05-09T02:23:22.350Z,101996.88
2023-05-09T02:26:25.205Z,102006.75
2023-05-09T02:29:37.910Z,102002.38
2023-05-09T02:32:42.666Z,102002.88
2023-05-09T02:35:50.719Z,102015.88
2023-05-09T02:38:52.844Z,102007.28
2023-05-09T02:41:54.294Z,102001.66
2023-05-09T02:44:56.231Z,102005.72
2023-05-09T02:47:58.539Z,101998.22
2023-05-09T02:50:59.972Z,101994.00
2023-05-09T02:54:01.622Z,101995.63
2023-05-09T02:57:03.308Z,102004.28
2023-05-09T03:00:08.837Z,102003.78
2023-05-09T03:03:11.260Z,102001.31
2023-05-09T03:06:13.625Z,101996.06
2023-05-09T03:09:15.144Z,101986.41
2023-05-09T03:12:16.864Z,101990.63
2023-05-09T03:15:18.718Z,101983.19
2023-05-09T03:18:20.823Z,101981.91
2023-05-09T03:21:22.706Z,101980.59
2023-05-09T03:24:27.501Z,101988.69
2023-05-09T03:27:29.412Z,101977.13
2023-05-09T03:30:31.000Z,101985.72
2023-05-09T03:33:33.712Z,101983.69
2023-05-09T03:36:35.200Z,101973.53
2023-05-09T03:39:36.828Z,101972.06
2023-05-09T03:42:38.500Z,101969.25
2023-05-09T03:45:40.097Z,101965.91
2023-05-09T03:48:42.385Z,101974.47
2023-05-09T03:51:44.118Z,101962.44
2023-05-09T03:54:48.721Z,101969.31
2023-05-09T03:57:50.205Z,101966.03
2023-05-09T04:00:51.960Z,101971.16
2023-05-09T04:03:54.349Z,101963.53
2023-05-09T04:06:56.416Z,101968.06
2023-05-09T04:09:58.073Z,101964.38
2023-05-09T04:12:59.843Z,101963.94
2023-05-09T04:16:01.559Z,101964.78
2023-05-09T04:19:04.145Z,101958.66
2023-05-09T04:22:05.522Z,101962.66
2023-05-09T04:25:11.656Z,101965.53
2023-05-09T04:28:13.239Z,101965.09
2023-05-09T04:31:15.049Z,101965.66
2023-05-09T04:34:17.471Z,101963.72
2023-05-09T04:37:19.702Z,101967.31
2023-05-09T04:40:21.235Z,101959.31
2023-05-09T04:43:25.708Z,101960.13
2023-05-09T04:46:27.117Z,101962.13
2023-05-09T04:49:29.380Z,101959.22
2023-05-09T04:52:30.977Z,101963.75
2023-05-09T04:55:32.465Z,101968.94
2023-05-09T04:58:37.698Z,101965.22
2023-05-09T05:01:39.101Z,101961.63
2023-05-09T05:04:41.614Z,101955.97
2023-05-09T05:07:43.268Z,101957.88
2023-05-09T05:10:44.724Z,101962.69
2023-05-09T05:13:46.391Z,101954.69
2023-05-09T05:16:47.972Z,101952.63
2023-05-09T05:19:50.216Z,101950.63
2023-05-09T05:22:53.894Z,101949.84
2023-05-09T05:25:55.411Z,101947.16
2023-05-09T05:28:56.970Z,101939.16
2023-05-09T05:31:58.530Z,101927.63
2023-05-09T05:35:01.976Z,101937.22
2023-05-09T05:38:03.543Z,101927.03
2023-05-09T05:41:05.632Z,101923.34
2023-05-09T05:44:09.664Z,101921.88
2023-05-09T05:47:11.023Z,101915.25
2023-05-09T05:50:13.618Z,101911.53
2023-05-09T05:53:15.319Z,101908.19
2023-05-09T05:56:16.905Z,101906.78
2023-05-09T05:59:18.346Z,101904.50
2023-05-09T06:02:19.873Z,101891.38
2023-05-09T06:05:22.000Z,101889.94
2023-05-09T06:08:23.603Z,101890.00
2023-05-09T06:11:25.076Z,101884.53
2023-05-09T06:14:26.939Z,101883.25
2023-05-09T06:17:28.740Z,101890.44
2023-05-09T06:20:30.854Z,101872.34
2023-05-09T06:23:32.519Z,101879.47
2023-05-09T06:26:33.881Z,101870.56
2023-05-09T06:29:35.468Z,101867.00
2023-05-09T06:32:36.874Z,101864.03
2023-05-09T06:35:39.187Z,101857.81
2023-05-09T06:38:40.522Z,101855.91
2023-05-09T06:41:42.168Z,101850.09
2023-05-09T06:44:43.582Z,101837.59
2023-05-09T06:47:45.242Z,101836.22
2023-05-09T06:50:48.293Z,101844.25
2023-05-09T06:53:50.282Z,101833.16
2023-05-09T06:56:51.816Z,101831.19
2023-05-09T06:59:53.165Z,101813.66
2023-05-09T07:02:55.257Z,101819.78
2023-05-09T07:05:58.381Z,101814.53
2023-05-09T07:09:03.401Z,101803.66
2023-05-09T07:12:05.661Z,101792.28
2023-05-09T07:15:08.411Z,101801.66
2023-05-09T07:18:10.012Z,101811.38
2023-05-09T07:21:12.518Z,101798.66
2023-05-09T07:24:14.099Z,101799.97
2023-05-09T07:27:15.554Z,101805.31
2023-05-09T07:30:17.251Z,101792.16
2023-05-09T07:33:19.056Z,101793.97
2023-05-09T07:36:21.350Z,101800.34
2023-05-09T07:39:22.831Z,101784.72
2023-05-09T07:42:24.441Z,101783.81
2023-05-09T07:45:25.917Z,101787.13
2023-05-09T07:48:27.539Z,101784.34
2023-05-09T07:51:29.703Z,101777.31
2023-05-09T07:54:31.536Z,101779.81
2023-05-09T07:57:33.009Z,101774.44
2023-05-09T08:00:34.596Z,101771.72
2023-05-09T08:03:36.187Z,101768.09
2023-05-09T08:06:38.559Z,101757.22
2023-05-09T08:09:39.995Z,101763.44
2023-05-09T08:12:41.783Z,101760.16
2023-05-09T08:15:43.698Z,101750.41
2023-05-09T08:18:45.876Z,101751.72
2023-05-09T08:21:48.366Z,101755.59
2023-05-09T08:24:50.210Z,101750.22
2023-05-09T08:27:53.043Z,101744.41
2023-05-09T08:30:56.350Z,101755.66
2023-05-09T08:33:58.325Z,101742.31
2023-05-09T08:37:00.574Z,101740.28
2023-05-09T08:40:07.040Z,101726.34
2023-05-09T08:43:08.891Z,101735.47
2023-05-09T08:46:13.173Z,101733.94
2023-05-09T08:49:15.696Z,101728.81
2023-05-09T08:52:18.564Z,101726.22
2023-05-09T08:55:20.491Z,101717.09
2023-05-09T08:58:22.418Z,101714.50
2023-05-09T09:01:26.190Z,101726.28
2023-05-09T09:04:27.990Z,101699.28
2023-05-09T09:07:33.298Z,101701.78
2023-05-09T09:10:35.198Z,101702.97
2023-05-09T09:13:40.290Z,101700.16
2023-05-09T09:16:44.724Z,101703.09
2023-05-09T09:19:49.522Z,101692.16
2023-05-09T09:22:55.234Z,101696.59
2023-05-09T09:26:01.254Z,101698.50
2023-05-09T09:29:03.330Z,101688.88
2023-05-09T09:32:06.696Z,101694.06
2023-05-09T09:35:10.342Z,101679.56
2023-05-09T09:38:15.018Z,101680.34
2023-05-09T09:41:16.729Z,101680.53
2023-05-09T09:44:19.282Z,101672.31
2023-05-09T09:47:20.975Z,101665.28
2023-05-09T09:50:24.076Z,101665.78
2023-05-09T09:53:29.732Z,101653.66
2023-05-09T09:56:41.947Z,101639.00
2023-05-09T09:59:58.373Z,101639.22
2023-05-09T10:03:00.667Z,101645.25
2023-05-09T10:06:02.266Z,101626.47
2023-05-09T10:09:04.639Z,101635.69
2023-05-09T10:12:07.990Z,101643.00
2023-05-09T10:15:11.888Z,101621.78
2023-05-09T10:18:19.255Z,101617.06
2023-05-09T10:21:20.870Z,101602.28
2023-05-09T10:24:28.314Z,101601.78
2023-05-09T10:27:33.993Z,101617.06
2023-05-09T10:30:37.722Z,101597.56
2023-05-09T10:33:46.047Z,101603.94
2023-05-09T10:36:48.695Z,101600.56
2023-05-09T10:39:53.037Z,101600.03
2023-05-09T10:42:54.672Z,101592.09
2023-05-09T10:45:56.330Z,101586.16
2023-05-09T10:48:58.473Z,101566.31
2023-05-09T10:52:00.082Z,101581.13
2023-05-09T10:55:03.874Z,101582.34
2023-05-09T10:58:23.894Z,101576.88
2023-05-09T11:01:30.365Z,101563.44
2023-05-09T11:04:32.611Z,101556.09
2023-05-09T11:07:34.106Z,101562.16
2023-05-09T11:10:42.474Z,101556.28
2023-05-09T11:13:46.088Z,101539.00
2023-05-09T11:16:57.498Z,101562.25
2023-05-09T11:20:05.296Z,101536.53
2023-05-09T11:23:11.116Z,101535.47
2023-05-09T11:26:15.553Z,101520.53
2023-05-09T11:29:17.908Z,101529.56
2023-05-09T11:32:20.348Z,101530.59
2023-05-09T11:35:23.175Z,101513.50
2023-05-09T11:38:25.063Z,101519.72
2023-05-09T11:41:27.559Z,101508.97
2023-05-09T11:44:32.692Z,101502.72
2023-05-09T11:47:36.523Z,101499.91
2023-05-09T11:50:38.039Z,101489.38
2023-05-09T11:53:45.955Z,101492.59
2023-05-09T11:56:48.543Z,101483.69
2023-05-09T11:59:50.378Z,101487.06
2023-05-09T12:02:52.726Z,101463.66
2023-05-09T12:05:54.957Z,101464.84
2023-05-09T12:08:56.853Z,101438.72
2023-05-09T12:12:00.451Z,101441.38
2023-05-09T12:15:04.231Z,101434.13
2023-05-09T12:18:07.811Z,101436.16
2023-05-09T12:21:09.485Z,101430.06
2023-05-09T12:24:11.066Z,101431.00
2023-05-09T12:27:13.529Z,101409.34
2023-05-09T12:30:15.535Z,101412.84
2023-05-09T12:33:17.895Z,101410.03
2023-05-09T12:36:19.472Z,101398.19
2023-05-09T12:39:22.247Z,101404.88
2023-05-09T12:42:27.114Z,101406.41
2023-05-09T12:45:28.532Z,101397.50
2023-05-09T12:48:34.784Z,101411.19
2023-05-09T12:51:36.792Z,101404.28
2023-05-09T12:54:38.263Z,101399.72
2023-05-09T12:57:41.263Z,101398.19
2023-05-09T13:00:43.131Z,101391.28
2023-05-09T13:03:44.661Z,101384.44
2023-05-09T13:06:51.233Z,101372.75
2023-05-09T13:09:56.560Z,101362.75
2023-05-09T13:12:58.841Z,101358.81
2023-05-09T13:16:00.403Z,101356.59
2023-05-09T13:19:01.956Z,101353.53
2023-05-09T13:22:03.491Z,101347.81
2023-05-09T13:25:05.894Z,101347.31
2023-05-09T13:28:08.446Z,101349.09
2023-05-09T13:31:10.214Z,101333.56
2023-05-09T13:34:11.702Z,101329.59
2023-05-09T13:37:13.212Z,101333.72
2023-05-09T13:40:14.806Z,101321.84
2023-05-09T13:43:17.402Z,101316.59
2023-05-09T13:46:18.928Z,101304.91
2023-05-09T13:49:20.933Z,101307.59
2023-05-09T13:52:23.514Z,101301.00
2023-05-09T13:55:25.717Z,101293.13
2023-05-09T13:58:28.515Z,101275.75
2023-05-09T14:01:30.340Z,101280.03
2023-05-09T14:04:32.213Z,101268.22
2023-05-09T14:07:33.846Z,101261.88
2023-05-09T14:10:35.364Z,101262.88
2023-05-09T14:13:37.733Z,101265.44
2023-05-09T14:16:39.907Z,101239.31
2023-05-09T14:19:41.584Z,101254.06
2023-05-09T14:22:43.123Z,101239.19
2023-05-09T14:25:44.670Z,101233.81
2023-05-09T14:28:46.803Z,101230.72
2023-05-09T14:31:48.316Z,101225.13
2023-05-09T14:34:50.157Z,101222.84
2023-05-09T14:37:51.560Z,101223.09
2023-05-09T14:40:53.346Z,101212.47
2023-05-09T14:43:55.497Z,101233.63
2023-05-09T14:46:56.974Z,101199.63
2023-05-09T14:49:58.400Z,101201.69
2023-05-09T14:53:00.481Z,101204.16
2023-05-09T14:56:02.432Z,101189.78
2023-05-09T14:59:04.682Z,101188.53
2023-05-09T15:02:06.677Z,101200.63
2023-05-09T15:05:09.250Z,101189.03
2023-05-09T15:08:10.751Z,101180.75
2023-05-09T15:11:12.148Z,101176.41
2023-05-09T15:14:14.457Z,101176.53
2023-05-09T15:17:15.870Z,101173.88
2023-05-09T15:20:18.792Z,101175.41
2023-05-09T15:23:20.534Z,101172.28
2023-05-09T15:26:21.953Z,101177.53
2023-05-09T15:29:24.031Z,101156.13
2023-05-09T15:32:26.255Z,101164.97
2023-05-09T15:35:27.673Z,101171.41
2023-05-09T15:38:29.479Z,101156.56
2023-05-09T15:41:31.535Z,101154.69
2023-05-09T15:44:33.828Z,101150.78
2023-05-09T15:47:35.401Z,101133.97
2023-05-09T15:50:37.343Z,101139.03
2023-05-09T15:53:38.761Z,101138.28
2023-05-09T15:56:40.418Z,101139.34
2023-05-09T15:59:42.422Z,101122.38
2023-05-09T16:02:44.228Z,101133.31
2023-05-09T16:05:45.983Z,101140.66
2023-05-09T16:08:47.493Z,101131.22
2023-05-09T16:11:49.048Z,101127.03
2023-05-09T16:14:51.163Z,101131.59
2023-05-09T16:17:54.253Z,101119.00
2023-05-09T16:20:55.966Z,101112.28
2023-05-09T16:23:57.580Z,101110.78
2023-05-09T16:26:59.213Z,101098.97
2023-05-09T16:30:01.275Z,101117.84
2023-05-09T16:33:02.976Z,101110.47
2023-05-09T16:36:05.197Z,101094.81
2023-05-09T16:39:06.984Z,101084.38
2023-05-09T16:42:09.116Z,101088.72
2023-05-09T16:45:11.845Z,101089.03
2023-05-09T16:48:13.330Z,101090.19
2023-05-09T16:51:14.865Z,101092.13
2023-05-09T16:54:16.608Z,101093.25
2023-05-09T16:57:18.311Z,101087.94
2023-05-09T17:00:21.969Z,101088.00
2023-05-09T17:03:23.495Z,101077.38
2023-05-09T17:06:25.646Z,101084.09
2023-05-09T17:09:27.036Z,101080.47
2023-05-09T17:12:28.570Z,101070.09
2023-05-09T17:15:30.690Z,101087.06
2023-05-09T17:18:37.611Z,101073.06
2023-05-09T17:21:40.819Z,101069.03
2023-05-09T17:24:42.203Z,101067.41
2023-05-09T17:27:43.777Z,101074.69
2023-05-09T17:30:45.952Z,101059.25
2023-05-09T17:33:47.654Z,101072.94
2023-05-09T17:36:49.328Z,101067.75
2023-05-09T17:39:51.094Z,101064.38
2023-05-09T17:42:52.781Z,101051.00
2023-05-09T17:45:55.082Z,101053.38
2023-05-09T17:48:57.056Z,101062.06
2023-05-09T17:51:59.244Z,101052.00
2023-05-09T17:55:00.979Z,101049.13
2023-05-09T17:58:02.695Z,101050.56
2023-05-09T18:01:05.008Z,101048.84
2023-05-09T18:04:06.756Z,101051.84
2023-05-09T18:07:09.954Z,101049.75
2023-05-09T18:10:12.074Z,101041.06
2023-05-09T18:13:13.532Z,101030.44
2023-05-09T18:16:15.532Z,101033.03
2023-05-09T18:19:17.067Z,101023.97
2023-05-09T18:22:18.628Z,101037.53
2023-05-09T18:25:20.118Z,101029.66
2023-05-09T18:28:24.388Z,101026.31
2023-05-09T18:31:26.933Z,101029.97
2023-05-09T18:34:28.377Z,101028.34
2023-05-09T18:37:30.137Z,101029.44
2023-05-09T18:40:31.824Z,101027.63
2023-05-09T18:43:33.278Z,101026.75
2023-05-09T18:46:35.375Z,101037.72
2023-05-09T18:49:38.069Z,101034.72
2023-05-09T18:52:39.931Z,101030.97
2023-05-09T18:55:42.009Z,101046.56
2023-05-09T18:58:43.911Z,101033.50
2023-05-09T19:01:45.992Z,101034.97
2023-05-09T19:04:49.635Z,101039.06
2023-05-09T19:07:51.879Z,101048.78
2023-05-09T19:10:55.064Z,101019.84
2023-05-09T19:13:56.558Z,101041.94
2023-05-09T19:16:58.778Z,101040.22
2023-05-09T19:20:01.651Z,101030.78
2023-05-09T19:23:03.668Z,101038.50
2023-05-09T19:26:05.137Z,101026.59
2023-05-09T19:29:07.360Z,101024.69
2023-05-09T19:32:09.571Z,101021.91
2023-05-09T19:35:10.926Z,101026.75
2023-05-09T19:38:12.343Z,101024.25
2023-05-09T19:41:13.778Z,101028.00
2023-05-09T19:44:15.063Z,101012.47
2023-05-09T19:47:17.185Z,101015.66
2023-05-09T19:50:18.946Z,101017.72
2023-05-09T19:53:20.435Z,101025.22
2023-05-09T19:56:22.441Z,101016.69
2023-05-09T19:59:23.882Z,101025.91
2023-05-09T20:02:25.972Z,101020.88
2023-05-09T20:05:27.476Z,101019.97
2023-05-09T20:08:29.255Z,101012.03
2023-05-09T20:11:30.694Z,101013.69
2023-05-09T20:14:32.081Z,101010.53
2023-05-09T20:17:34.101Z,101008.56
2023-05-09T20:20:35.590Z,101004.22
2023-05-09T20:23:37.388Z,100998.03
2023-05-09T20:26:38.977Z,100995.19
2023-05-09T20:29:40.434Z,100997.97
2023-05-09T20:32:42.827Z,100984.97
2023-05-09T20:35:44.218Z,100978.94
2023-05-09T20:38:45.670Z,100973.97
2023-05-09T20:41:48.187Z,100973.19
2023-05-09T20:44:50.747Z,100978.50
2023-05-09T20:47:52.892Z,100986.53
2023-05-09T20:50:54.227Z,100971.31
2023-05-09T20:53:55.649Z,100971.38
2023-05-09T20:56:57.100Z,100962.78
2023-05-09T20:59:58.464Z,100960.56
2023-05-09T21:03:00.576Z,100957.91
2023-05-09T21:06:01.964Z,100954.88
2023-05-09T21:09:04.199Z,100948.41
2023-05-09T21:12:06.242Z,100945.19
2023-05-09T21:15:08.541Z,100942.44
2023-05-09T21:18:10.777Z,100943.59
2023-05-09T21:21:12.188Z,100942.03
2023-05-09T21:24:13.575Z,100936.16
2023-05-09T21:27:14.850Z,100935.53
2023-05-09T21:30:16.826Z,100929.28
2023-05-09T21:33:19.100Z,100928.00
2023-05-09T21:36:20.553Z,100929.31
2023-05-09T21:39:21.862Z,100938.16
2023-05-09T21:42:23.397Z,100930.19
2023-05-09T21:45:24.707Z,100929.63
2023-05-09T21:48:26.801Z,100933.00
2023-05-09T21:51:28.469Z,100927.09
2023-05-09T21:54:29.961Z,100932.09
2023-05-09T21:57:31.420Z,100920.63
2023-05-09T22:00:32.768Z,100920.09
2023-05-09T22:03:35.112Z,100922.91
2023-05-09T22:06:36.513Z,100918.72
2023-05-09T22:09:37.887Z,100917.38
2023-05-09T22:12:39.369Z,100920.19
2023-05-09T22:15:41.895Z,100912.94
2023-05-09T22:18:43.970Z,100915.16
2023-05-09T22:21:45.241Z,100923.19
2023-05-09T22:24:46.684Z,100922.38
2023-05-09T22:27:47.934Z,100926.25
2023-05-09T22:30:49.386Z,100921.03
2023-05-09T22:33:51.593Z,100924.06
2023-05-09T22:36:54.201Z,100922.72
2023-05-09T22:39:55.664Z,100914.69
2023-05-09T22:42:57.126Z,100915.56
2023-05-09T22:45:58.607Z,100915.00
2023-05-09T22:49:00.568Z,100908.41
2023-05-09T22:52:02.009Z,100903.38
2023-05-09T22:55:03.803Z,100908.09
2023-05-09T22:58:05.801Z,100904.28
2023-05-09T23:01:07.251Z,100895.19
2023-05-09T23:04:09.267Z,100905.13
2023-05-09T23:07:10.824Z,100889.66
2023-05-09T23:10:12.111Z,100889.66
2023-05-09T23:13:13.611Z,100892.44
2023-05-09T23:16:15.503Z,100882.53
2023-05-09T23:19:18.869Z,100892.72
2023-05-09T23:22:20.286Z,100887.47
2023-05-09T23:25:21.750Z,100888.84
2023-05-09T23:28:24.549Z,100885.81
2023-05-09T23:31:26.022Z,100875.88
2023-05-09T23:34:28.745Z,100873.69
2023-05-09T23:37:30.213Z,100875.06
2023-05-09T23:40:31.498Z,100869.28
2023-05-09T23:43:33.457Z,100871.22
2023-05-09T23:46:34.842Z,100865.72
2023-05-09T23:49:36.927Z,100871.78
2023-05-09T23:52:38.351Z,100871.78
2023-05-09T23:55:39.595Z,100862.91
2023-05-09T23:58:42.056Z,100856.31
